createdAt,value
2023-05-25T00:02:57.829Z,4.00
2023-05-25T00:06:02.309Z,3.57
2023-05-25T00:09:05.673Z,4.20
2023-05-25T00:12:09.537Z,4.00
2023-05-25T00:15:13.098Z,4.63
2023-05-25T00:18:18.395Z,4.63
2023-05-25T00:21:21.853Z,3.97
2023-05-25T00:24:25.146Z,3.57
2023-05-25T00:27:28.492Z,4.63
2023-05-25T00:30:31.920Z,4.50
2023-05-25T00:33:36.262Z,4.63
2023-05-25T00:36:39.155Z,4.60
2023-05-25T00:39:42.067Z,5.30
2023-05-25T00:42:45.703Z,4.07
2023-05-25T00:45:49.394Z,3.90
2023-05-25T00:48:56.520Z,4.33
2023-05-25T00:51:59.683Z,4.13
2023-05-25T00:55:04.361Z,4.47
2023-05-25T00:58:08.822Z,5.07
2023-05-25T01:01:12.817Z,4.20
2023-05-25T01:04:19.584Z,4.50
2023-05-25T01:07:25.222Z,4.50
2023-05-25T01:10:32.713Z,4.83
2023-05-25T01:13:38.113Z,4.53
2023-05-25T01:16:42.440Z,3.63
2023-05-25T01:19:54.773Z,4.47
2023-05-25T01:23:13.755Z,4.47
2023-05-25T01:26:19.046Z,4.63
2023-05-25T01:29:23.803Z,4.53
2023-05-25T01:32:27.427Z,5.60
2023-05-25T01:35:30.977Z,4.50
2023-05-25T01:38:35.696Z,4.47
2023-05-25T01:41:38.493Z,5.67
2023-05-25T01:44:41.526Z,4.73
2023-05-25T01:47:51.764Z,4.70
2023-05-25T01:50:59.088Z,4.30
2023-05-25T01:54:08.846Z,4.73
2023-05-25T01:57:16.504Z,4.57
2023-05-25T02:00:21.659Z,5.30
2023-05-25T02:03:24.920Z,5.17
2023-05-25T02:06:27.999Z,4.13
2023-05-25T02:09:32.210Z,5.07
2023-05-25T02:12:35.112Z,6.03
2023-05-25T02:15:37.961Z,4.27
2023-05-25T02:18:40.980Z,4.70
2023-05-25T02:21:44.029Z,4.83
2023-05-25T02:24:48.255Z,5.60
2023-05-25T02:27:51.555Z,4.90
2023-05-25T02:30:54.444Z,4.50
2023-05-25T02:33:57.761Z,5.20
2023-05-25T02:37:01.883Z,5.83
2023-05-25T02:40:07.419Z,5.00
2023-05-25T02:43:10.214Z,5.27
2023-05-25T02:46:13.229Z,5.80
2023-05-25T02:49:16.105Z,6.60
2023-05-25T02:52:18.905Z,6.57
2023-05-25T02:55:23.155Z,6.47
2023-05-25T02:58:26.064Z,6.40
2023-05-25T03:01:31.127Z,6.73
2023-05-25T03:04:37.998Z,9.33
2023-05-25T03:07:41.111Z,9.03
2023-05-25T03:10:45.947Z,9.03
2023-05-25T03:13:48.776Z,9.10
2023-05-25T03:16:53.759Z,9.33
2023-05-25T03:19:57.041Z,9.40
2023-05-25T03:22:59.897Z,9.37
2023-05-25T03:26:04.062Z,10.93
2023-05-25T03:29:07.252Z,11.40
2023-05-25T03:32:10.090Z,10.93
2023-05-25T03:35:12.983Z,12.20
2023-05-25T03:38:15.799Z,12.70
2023-05-25T03:41:20.030Z,12.17
2023-05-25T03:44:23.246Z,11.03
2023-05-25T03:47:26.526Z,11.27
2023-05-25T03:50:29.781Z,10.60
2023-05-25T03:53:32.994Z,10.53
2023-05-25T03:56:37.613Z,10.40
2023-05-25T03:59:40.974Z,9.90
2023-05-25T04:02:44.322Z,10.83
2023-05-25T04:05:47.623Z,11.93
2023-05-25T04:08:51.729Z,10.17
2023-05-25T04:11:56.290Z,8.83
2023-05-25T04:14:59.539Z,10.80
2023-05-25T04:18:03.092Z,9.97
2023-05-25T04:21:06.448Z,10.07
2023-05-25T04:24:09.745Z,10.07
2023-05-25T04:27:15.448Z,11.37
2023-05-25T04:30:18.698Z,9.17
2023-05-25T04:33:21.904Z,9.00
2023-05-25T04:36:25.258Z,11.67
2023-05-25T04:39:28.707Z,10.67
2023-05-25T04:42:33.253Z,10.53
2023-05-25T04:45:37.112Z,10.23
2023-05-25T04:48:40.625Z,9.30
2023-05-25T04:51:43.839Z,9.97
2023-05-25T04:54:47.482Z,10.57
2023-05-25T04:57:53.179Z,9.83
2023-05-25T05:00:56.534Z,9.57
2023-05-25T05:03:59.970Z,10.30
2023-05-25T05:07:03.398Z,10.37
2023-05-25T05:10:06.919Z,10.07
2023-05-25T05:13:11.800Z,10.10
2023-05-25T05:16:15.050Z,10.37
2023-05-25T05:19:18.274Z,10.53
2023-05-25T05:22:21.561Z,10.33
2023-05-25T05:25:24.845Z,10.33
2023-05-25T05:28:29.851Z,9.53
2023-05-25T05:31:33.137Z,10.73
2023-05-25T05:34:37.472Z,11.63
2023-05-25T05:37:40.746Z,9.87
2023-05-25T05:40:43.989Z,10.43
2023-05-25T05:43:48.822Z,10.00
2023-05-25T05:46:52.251Z,9.50
2023-05-25T05:49:55.581Z,10.57
2023-05-25T05:52:59.105Z,11.67
2023-05-25T05:56:02.413Z,12.03
2023-05-25T05:59:07.003Z,11.07
2023-05-25T06:02:10.417Z,10.53
2023-05-25T06:05:13.889Z,11.40
2023-05-25T06:08:17.181Z,10.13
2023-05-25T06:11:20.397Z,12.20
2023-05-25T06:14:27.516Z,11.37
2023-05-25T06:17:31.700Z,11.50
2023-05-25T06:20:35.268Z,10.77
2023-05-25T06:23:38.532Z,11.37
2023-05-25T06:26:41.983Z,11.03
2023-05-25T06:29:46.558Z,10.43
2023-05-25T06:32:49.839Z,11.90
2023-05-25T06:35:56.454Z,10.67
2023-05-25T06:39:01.553Z,10.77
2023-05-25T06:42:04.813Z,10.23
2023-05-25T06:45:10.146Z,11.07
2023-05-25T06:48:13.566Z,10.50
2023-05-25T06:51:17.034Z,10.83
2023-05-25T06:54:20.709Z,11.30
2023-05-25T06:57:24.279Z,10.70
2023-05-25T07:00:29.297Z,11.37
2023-05-25T07:03:32.663Z,10.50
2023-05-25T07:06:36.475Z,10.97
2023-05-25T07:09:39.806Z,9.90
2023-05-25T07:12:43.015Z,10.87
2023-05-25T07:15:48.335Z,11.40
2023-05-25T07:18:51.770Z,9.97
2023-05-25T07:21:54.985Z,10.03
2023-05-25T07:24:58.502Z,9.87
2023-05-25T07:28:01.705Z,9.23
2023-05-25T07:31:06.773Z,10.47
2023-05-25T07:34:10.061Z,8.60
2023-05-25T07:37:13.327Z,11.60
2023-05-25T07:40:16.654Z,8.97
2023-05-25T07:43:20.055Z,8.87
2023-05-25T07:46:25.844Z,9.67
2023-05-25T07:49:29.153Z,10.40
2023-05-25T07:52:32.395Z,10.10
2023-05-25T07:55:35.653Z,10.57
2023-05-25T07:58:38.865Z,9.93
2023-05-25T08:01:43.449Z,11.23
2023-05-25T08:04:46.928Z,11.20
2023-05-25T08:07:50.185Z,10.97
2023-05-25T08:10:53.407Z,10.67
2023-05-25T08:13:56.803Z,10.67
2023-05-25T08:17:01.650Z,10.57
2023-05-25T08:20:06.401Z,10.83
2023-05-25T08:23:09.701Z,10.07
2023-05-25T08:29:20.009Z,10.67
2023-05-25T08:32:24.653Z,10.23
2023-05-25T08:35:27.902Z,10.30
2023-05-25T08:38:31.794Z,10.03
2023-05-25T08:41:36.710Z,10.20
2023-05-25T08:44:41.533Z,10.53
2023-05-25T08:47:46.194Z,10.53
2023-05-25T08:50:50.368Z,10.20
2023-05-25T08:53:55.182Z,11.47
2023-05-25T08:57:02.546Z,10.63
2023-05-25T09:00:10.661Z,9.87
2023-05-25T09:03:17.838Z,11.10
2023-05-25T09:06:21.636Z,10.43
2023-05-25T09:09:24.915Z,10.70
2023-05-25T09:12:30.030Z,9.77
2023-05-25T09:15:33.735Z,9.10
2023-05-25T09:18:38.341Z,8.47
2023-05-25T09:21:41.893Z,9.20
2023-05-25T09:24:45.571Z,9.63
2023-05-25T09:27:49.017Z,9.70
2023-05-25T09:30:52.559Z,9.47
2023-05-25T09:34:00.217Z,9.03
2023-05-25T09:37:05.459Z,8.77
2023-05-25T09:40:10.808Z,9.67
2023-05-25T09:43:25.016Z,9.37
2023-05-25T09:46:36.239Z,8.53
2023-05-25T09:49:41.911Z,9.17
2023-05-25T09:52:45.158Z,9.30
2023-05-25T09:55:54.279Z,8.93
2023-05-25T09:58:58.923Z,8.97
2023-05-25T10:02:02.756Z,9.00
2023-05-25T10:05:09.405Z,9.00
2023-05-25T10:08:13.187Z,8.90
2023-05-25T10:11:17.276Z,8.47
2023-05-25T10:14:26.563Z,9.50
2023-05-25T10:17:33.646Z,9.10
2023-05-25T10:20:38.384Z,9.63
2023-05-25T10:23:45.473Z,9.37
2023-05-25T10:26:51.843Z,9.17
2023-05-25T10:29:57.098Z,8.93
2023-05-25T10:33:00.665Z,9.33
2023-05-25T10:36:10.839Z,9.27
2023-05-25T10:39:14.693Z,9.33
2023-05-25T10:42:20.109Z,9.70
2023-05-25T10:45:24.467Z,10.20
2023-05-25T10:48:37.301Z,8.23
2023-05-25T10:51:43.805Z,10.43
2023-05-25T10:54:48.308Z,9.73
2023-05-25T10:58:08.681Z,11.43
2023-05-25T11:01:12.929Z,10.73
2023-05-25T11:04:17.707Z,11.37
2023-05-25T11:07:23.494Z,10.63
2023-05-25T11:10:45.433Z,11.70
2023-05-25T11:13:49.388Z,11.00
2023-05-25T11:17:06.189Z,10.80
2023-05-25T11:20:09.673Z,9.70
2023-05-25T11:23:26.839Z,9.40
2023-05-25T11:26:31.000Z,8.97
2023-05-25T11:29:36.185Z,9.47
2023-05-25T11:32:39.769Z,9.07
2023-05-25T11:35:45.367Z,10.27
2023-05-25T11:39:02.368Z,9.43
2023-05-25T11:42:11.287Z,9.13
2023-05-25T11:45:16.005Z,7.80
2023-05-25T11:48:19.342Z,8.10
2023-05-25T11:51:22.982Z,8.43
2023-05-25T11:54:29.284Z,7.80
2023-05-25T11:57:32.552Z,8.87
2023-05-25T12:00:35.938Z,7.60
2023-05-25T12:03:39.201Z,8.50
2023-05-25T12:06:42.562Z,9.03
2023-05-25T12:09:47.144Z,9.60
2023-05-25T12:12:51.508Z,7.33
2023-05-25T12:15:57.672Z,8.83
2023-05-25T12:19:00.982Z,9.07
2023-05-25T12:22:04.442Z,8.97
2023-05-25T12:25:10.371Z,8.00
2023-05-25T12:28:14.591Z,8.38
2023-05-25T12:31:24.432Z,8.03
2023-05-25T12:34:29.283Z,7.40
2023-05-25T12:37:32.692Z,9.02
2023-05-25T12:40:37.279Z,7.95
2023-05-25T12:43:42.924Z,7.72
2023-05-25T12:46:46.245Z,7.15
2023-05-25T12:49:51.814Z,7.90
2023-05-25T12:53:02.094Z,7.72
2023-05-25T12:56:06.768Z,7.40
2023-05-25T12:59:16.377Z,7.80
2023-05-25T13:02:19.720Z,8.98
2023-05-25T13:05:26.550Z,7.95
2023-05-25T13:08:31.789Z,8.27
2023-05-25T13:11:36.987Z,7.70
2023-05-25T13:14:40.218Z,7.57
2023-05-25T13:17:44.123Z,7.68
2023-05-25T13:20:50.613Z,6.82
2023-05-25T13:23:55.867Z,8.63
2023-05-25T13:27:01.375Z,8.40
2023-05-25T13:30:04.894Z,7.45
2023-05-25T13:33:08.147Z,8.82
2023-05-25T13:36:11.466Z,9.20
2023-05-25T13:39:14.894Z,7.72
2023-05-25T13:42:19.528Z,9.60
2023-05-25T13:45:22.798Z,8.65
2023-05-25T13:48:26.146Z,7.97
2023-05-25T13:51:29.469Z,8.50
2023-05-25T13:54:34.788Z,7.80
2023-05-25T13:57:39.775Z,8.90
2023-05-25T14:00:43.795Z,7.63
2023-05-25T14:03:47.981Z,8.45
2023-05-25T14:06:51.514Z,8.40
2023-05-25T14:09:54.868Z,8.25
2023-05-25T14:12:59.604Z,8.65
2023-05-25T14:16:03.378Z,7.85
2023-05-25T14:19:06.894Z,7.65
2023-05-25T14:22:14.187Z,6.70
2023-05-25T14:25:17.801Z,7.47
2023-05-25T14:28:22.376Z,7.13
2023-05-25T14:31:25.678Z,7.65
2023-05-25T14:34:29.012Z,7.32
2023-05-25T14:37:32.268Z,6.55
2023-05-25T14:40:35.546Z,5.65
2023-05-25T14:43:40.117Z,6.00
2023-05-25T14:46:43.443Z,6.15
2023-05-25T14:49:46.770Z,7.00
2023-05-25T14:52:50.014Z,5.30
2023-05-25T14:55:53.375Z,5.90
2023-05-25T14:58:57.973Z,5.80
2023-05-25T15:02:01.429Z,6.72
2023-05-25T15:05:04.834Z,6.95
2023-05-25T15:08:08.109Z,5.18
2023-05-25T15:11:11.552Z,5.75
2023-05-25T15:14:16.686Z,5.97
2023-05-25T15:17:19.973Z,4.75
2023-05-25T15:20:23.212Z,4.95
2023-05-25T15:23:26.535Z,5.20
2023-05-25T15:26:29.993Z,5.38
2023-05-25T15:29:34.566Z,5.03
2023-05-25T15:32:37.955Z,4.38
2023-05-25T15:35:41.236Z,4.82
2023-05-25T15:38:45.710Z,5.07
2023-05-25T15:41:48.967Z,5.38
2023-05-25T15:44:53.502Z,5.57
2023-05-25T15:47:56.894Z,4.70
2023-05-25T15:51:00.182Z,4.78
2023-05-25T15:54:03.418Z,5.10
2023-05-25T15:57:07.082Z,4.43
2023-05-25T16:00:12.700Z,4.40
2023-05-25T16:03:16.213Z,4.60
2023-05-25T16:06:19.476Z,4.63
2023-05-25T16:09:22.799Z,4.10
2023-05-25T16:12:27.073Z,4.65
2023-05-25T16:15:31.639Z,4.70
2023-05-25T16:18:34.861Z,5.80
2023-05-25T16:21:38.213Z,4.60
2023-05-25T16:24:41.473Z,5.18
2023-05-25T16:27:44.787Z,5.07
2023-05-25T16:30:49.445Z,4.55
2023-05-25T16:33:52.698Z,4.68
2023-05-25T16:36:56.017Z,4.22
2023-05-25T16:39:59.273Z,4.10
2023-05-25T16:43:02.494Z,5.82
2023-05-25T16:46:07.313Z,4.65
2023-05-25T16:49:10.606Z,3.92
2023-05-25T16:52:13.845Z,4.85
2023-05-25T16:55:17.056Z,4.05
2023-05-25T16:58:20.639Z,4.90
2023-05-25T17:01:25.237Z,3.50
2023-05-25T17:04:28.502Z,4.13
2023-05-25T17:07:31.733Z,4.25
2023-05-25T17:10:34.964Z,4.63
2023-05-25T17:13:38.175Z,3.92
2023-05-25T17:16:42.908Z,5.13
2023-05-25T17:19:46.243Z,3.92
2023-05-25T17:22:49.897Z,4.65
2023-05-25T17:25:53.134Z,3.72
2023-05-25T17:28:57.748Z,3.90
2023-05-25T17:32:02.342Z,4.05
2023-05-25T17:35:05.710Z,4.60
2023-05-25T17:38:08.930Z,4.28
2023-05-25T17:41:12.196Z,3.65
2023-05-25T17:44:15.464Z,3.63
2023-05-25T17:47:20.130Z,4.75
2023-05-25T17:50:23.347Z,3.92
2023-05-25T17:53:26.980Z,4.00
2023-05-25T17:56:30.358Z,3.78
2023-05-25T17:59:33.656Z,4.57
2023-05-25T18:02:38.449Z,4.22
2023-05-25T18:05:41.790Z,4.43
2023-05-25T18:08:45.085Z,3.92
2023-05-25T18:11:48.502Z,3.38
2023-05-25T18:14:51.741Z,4.28
2023-05-25T18:17:56.610Z,4.35
2023-05-25T18:21:00.147Z,4.95
2023-05-25T18:24:03.391Z,3.88
2023-05-25T18:27:06.740Z,4.10
2023-05-25T18:30:10.766Z,4.05
2023-05-25T18:33:16.361Z,4.55
2023-05-25T18:36:19.650Z,4.28
2023-05-25T18:39:22.907Z,4.00
2023-05-25T18:42:26.170Z,4.43
2023-05-25T18:45:29.448Z,4.90
2023-05-25T18:48:34.835Z,4.65
2023-05-25T18:51:38.169Z,4.60
2023-05-25T18:54:41.470Z,4.55
2023-05-25T18:57:44.706Z,5.35
2023-05-25T19:00:47.940Z,4.90
2023-05-25T19:03:52.977Z,4.43
2023-05-25T19:06:56.778Z,5.57
2023-05-25T19:10:00.010Z,5.30
2023-05-25T19:13:03.312Z,5.05
2023-05-25T19:16:06.844Z,4.80
2023-05-25T19:19:11.513Z,5.28
2023-05-25T19:22:14.959Z,5.07
2023-05-25T19:25:18.306Z,4.72
2023-05-25T19:28:21.530Z,5.65
2023-05-25T19:31:24.810Z,5.10
2023-05-25T19:34:29.411Z,4.55
2023-05-25T19:37:32.720Z,5.15
2023-05-25T19:40:35.975Z,4.50
2023-05-25T19:43:39.479Z,5.20
2023-05-25T19:46:42.714Z,5.30
2023-05-25T19:49:47.781Z,5.30
2023-05-25T19:52:51.178Z,6.18
2023-05-25T19:55:54.903Z,5.93
2023-05-25T19:58:58.121Z,5.78
2023-05-25T20:02:01.404Z,6.43
2023-05-25T20:05:06.822Z,5.68
2023-05-25T20:08:10.060Z,6.37
2023-05-25T20:11:13.360Z,5.97
2023-05-25T20:14:18.034Z,6.75
2023-05-25T20:17:23.231Z,5.97
2023-05-25T20:20:27.931Z,6.07
2023-05-25T20:23:31.198Z,6.47
2023-05-25T20:26:34.964Z,6.23
2023-05-25T20:29:38.291Z,6.40
2023-05-25T20:32:41.552Z,7.35
2023-05-25T20:35:46.455Z,5.67
2023-05-25T20:38:49.934Z,6.95
2023-05-25T20:41:53.236Z,7.15
2023-05-25T20:44:56.549Z,6.88
2023-05-25T20:48:01.331Z,6.43
2023-05-25T20:51:06.025Z,6.55
2023-05-25T20:54:09.322Z,7.20
2023-05-25T20:57:12.899Z,7.70
2023-05-25T21:00:16.832Z,6.63
2023-05-25T21:03:20.169Z,7.50
2023-05-25T21:06:24.959Z,7.50
2023-05-25T21:09:28.306Z,6.68
2023-05-25T21:12:31.654Z,6.93
2023-05-25T21:15:34.942Z,7.15
2023-05-25T21:18:38.153Z,6.88
2023-05-25T21:21:42.814Z,7.13
2023-05-25T21:24:46.043Z,7.20
2023-05-25T21:27:49.297Z,7.20
2023-05-25T21:30:52.557Z,7.20
2023-05-25T21:33:55.813Z,7.47
2023-05-25T21:37:00.369Z,8.10
2023-05-25T21:40:03.634Z,7.80
2023-05-25T21:43:06.881Z,7.23
2023-05-25T21:46:10.132Z,7.67
2023-05-25T21:49:13.385Z,7.60
2023-05-25T21:52:17.837Z,7.90
2023-05-25T21:55:20.904Z,7.47
2023-05-25T21:58:23.745Z,7.53
2023-05-25T22:01:26.947Z,8.40
2023-05-25T22:04:29.824Z,8.47
2023-05-25T22:07:34.068Z,8.03
2023-05-25T22:10:39.404Z,8.17
2023-05-25T22:13:42.362Z,8.80
2023-05-25T22:16:45.215Z,8.87
2023-05-25T22:19:59.034Z,7.73
2023-05-25T22:23:13.157Z,8.13
2023-05-25T22:26:15.959Z,8.33
2023-05-25T22:29:18.768Z,9.00
2023-05-25T22:32:21.710Z,8.30
2023-05-25T22:35:24.610Z,8.27
2023-05-25T22:38:28.805Z,8.33
2023-05-25T22:41:31.666Z,7.63
2023-05-25T22:44:35.964Z,9.00
2023-05-25T22:47:38.865Z,8.90
2023-05-25T22:50:41.706Z,8.73
2023-05-25T22:53:46.145Z,8.17
2023-05-25T22:56:49.004Z,8.27
2023-05-25T22:59:51.903Z,8.57
2023-05-25T23:02:54.767Z,8.10
2023-05-25T23:05:57.673Z,8.60
2023-05-25T23:09:02.303Z,8.77
2023-05-25T23:12:05.604Z,7.77
2023-05-25T23:15:09.561Z,8.83
2023-05-25T23:18:12.439Z,9.23
2023-05-25T23:21:15.418Z,7.80
2023-05-25T23:24:19.609Z,8.63
2023-05-25T23:27:22.449Z,8.27
2023-05-25T23:30:25.259Z,8.67
2023-05-25T23:33:29.140Z,9.07
2023-05-25T23:36:33.727Z,8.23
2023-05-25T23:39:38.193Z,8.03
2023-05-25T23:42:44.038Z,7.97
2023-05-25T23:45:47.071Z,8.50
2023-05-25T23:48:50.103Z,9.50
2023-05-25T23:51:53.093Z,8.80
2023-05-25T23:54:57.248Z,9.30
2023-05-25T23:58:00.076Z,9.73
